createdAt,value
2023-05-21T00:00:55.477Z,17.00
2023-05-21T00:03:27.013Z,17.00
2023-05-21T00:05:56.946Z,17.00
2023-05-21T00:08:26.142Z,17.00
2023-05-21T00:10:56.988Z,16.90
2023-05-21T00:13:25.276Z,16.90
2023-05-21T00:15:53.475Z,16.90
2023-05-21T00:18:22.216Z,16.90
2023-05-21T00:20:50.353Z,17.00
2023-05-21T00:23:21.488Z,16.90
2023-05-21T00:25:50.500Z,16.90
2023-05-21T00:28:18.832Z,16.90
2023-05-21T00:30:47.314Z,16.90
2023-05-21T00:33:15.763Z,16.90
2023-05-21T00:35:44.114Z,16.90
2023-05-21T00:38:12.464Z,16.90
2023-05-21T00:40:44.721Z,16.90
2023-05-21T00:43:14.400Z,16.80
2023-05-21T00:45:44.670Z,16.80
2023-05-21T00:48:14.759Z,16.90
2023-05-21T00:50:44.945Z,16.80
2023-05-21T00:53:15.303Z,16.80
2023-05-21T00:55:45.327Z,16.80
2023-05-21T00:58:14.275Z,16.80
2023-05-21T01:00:42.696Z,16.80
2023-05-21T01:03:11.538Z,16.80
2023-05-21T01:05:40.203Z,16.80
2023-05-21T01:08:10.389Z,16.80
2023-05-21T01:10:38.662Z,16.80
2023-05-21T01:13:08.488Z,16.80
2023-05-21T01:15:38.312Z,16.80
2023-05-21T01:18:07.735Z,16.80
2023-05-21T01:20:36.250Z,16.80
2023-05-21T01:23:07.144Z,16.80
2023-05-21T01:25:36.896Z,16.80
2023-05-21T01:28:05.687Z,16.80
2023-05-21T01:30:33.972Z,16.80
2023-05-21T01:33:04.845Z,16.80
2023-05-21T01:35:37.417Z,16.80
2023-05-21T01:38:17.274Z,16.80
2023-05-21T01:40:52.238Z,16.80
2023-05-21T01:43:21.744Z,16.80
2023-05-21T01:45:53.645Z,16.70
2023-05-21T01:48:22.214Z,16.60
2023-05-21T01:50:52.964Z,16.60
2023-05-21T01:53:23.015Z,16.50
2023-05-21T01:55:51.397Z,16.50
2023-05-21T01:58:24.578Z,16.40
2023-05-21T02:00:52.737Z,16.40
2023-05-21T02:03:23.080Z,16.40
2023-05-21T02:05:52.283Z,16.30
2023-05-21T02:08:23.416Z,16.30
2023-05-21T02:10:51.986Z,16.30
2023-05-21T02:13:21.537Z,16.30
2023-05-21T02:15:51.730Z,16.20
2023-05-21T02:18:21.359Z,16.10
2023-05-21T02:20:49.660Z,16.10
2023-05-21T02:23:18.188Z,16.10
2023-05-21T02:25:47.698Z,16.10
2023-05-21T02:28:16.049Z,16.10
2023-05-21T02:30:44.271Z,16.00
2023-05-21T02:33:14.299Z,16.00
2023-05-21T02:35:43.900Z,16.00
2023-05-21T02:38:13.629Z,16.00
2023-05-21T02:40:41.954Z,15.90
2023-05-21T02:43:12.661Z,15.90
2023-05-21T02:45:41.857Z,15.80
2023-05-21T02:48:10.127Z,15.80
2023-05-21T02:50:41.664Z,15.80
2023-05-21T02:53:10.085Z,15.80
2023-05-21T02:55:38.503Z,15.80
2023-05-21T02:58:06.980Z,15.80
2023-05-21T03:00:36.574Z,15.80
2023-05-21T03:03:05.301Z,15.80
2023-05-21T03:05:33.632Z,15.80
2023-05-21T03:08:01.803Z,15.80
2023-05-21T03:10:30.494Z,15.80
2023-05-21T03:12:58.789Z,15.80
2023-05-21T03:15:33.277Z,15.80
2023-05-21T03:18:03.007Z,15.80
2023-05-21T03:20:32.080Z,15.80
2023-05-21T03:23:00.490Z,15.80
2023-05-21T03:25:28.718Z,15.80
2023-05-21T03:27:57.113Z,15.80
2023-05-21T03:30:52.254Z,15.80
2023-05-21T03:33:44.845Z,15.80
2023-05-21T03:36:32.810Z,15.80
2023-05-21T03:39:01.012Z,15.80
2023-05-21T03:41:29.350Z,15.80
2023-05-21T03:44:05.723Z,15.90
2023-05-21T03:46:46.209Z,15.90
2023-05-21T03:49:34.028Z,16.00
2023-05-21T03:52:02.218Z,16.00
2023-05-21T03:54:30.566Z,16.10
2023-05-21T03:57:03.713Z,16.20
2023-05-21T03:59:31.988Z,16.40
2023-05-21T04:02:00.905Z,16.40
2023-05-21T04:04:30.559Z,16.50
2023-05-21T04:07:01.025Z,16.60
2023-05-21T04:09:29.321Z,16.70
2023-05-21T04:11:57.844Z,16.80
2023-05-21T04:14:26.414Z,17.00
2023-05-21T04:16:54.804Z,17.30
2023-05-21T04:19:23.125Z,17.50
2023-05-21T04:21:51.840Z,17.60
2023-05-21T04:24:22.663Z,17.70
2023-05-21T04:27:01.629Z,17.70
2023-05-21T04:29:32.442Z,17.80
2023-05-21T04:32:00.759Z,17.90
2023-05-21T04:34:29.690Z,18.10
2023-05-21T04:36:57.871Z,18.30
2023-05-21T04:39:28.505Z,18.40
2023-05-21T04:41:56.966Z,18.50
2023-05-21T04:44:26.657Z,18.60
2023-05-21T04:46:55.310Z,18.60
2023-05-21T04:49:26.018Z,18.50
2023-05-21T04:51:54.179Z,18.50
2023-05-21T04:54:23.585Z,18.60
2023-05-21T04:56:53.204Z,18.70
2023-05-21T04:59:21.650Z,18.80
2023-05-21T05:01:49.940Z,18.90
2023-05-21T05:04:18.087Z,19.00
2023-05-21T05:06:46.271Z,19.20
2023-05-21T05:09:14.531Z,19.40
2023-05-21T05:11:43.021Z,19.50
2023-05-21T05:14:12.642Z,19.50
2023-05-21T05:16:40.980Z,19.40
2023-05-21T05:19:09.338Z,19.60
2023-05-21T05:21:37.871Z,19.40
2023-05-21T05:24:06.884Z,19.60
2023-05-21T05:26:35.151Z,19.60
2023-05-21T05:29:03.355Z,19.60
2023-05-21T05:31:33.088Z,19.70
2023-05-21T05:34:01.456Z,20.00
2023-05-21T05:36:31.607Z,20.10
2023-05-21T05:39:00.228Z,20.30
2023-05-21T05:41:29.012Z,20.40
2023-05-21T05:43:57.772Z,20.40
2023-05-21T05:46:30.715Z,20.40
2023-05-21T05:49:00.577Z,20.40
2023-05-21T05:51:30.126Z,20.40
2023-05-21T05:53:58.269Z,20.50
2023-05-21T05:56:26.886Z,20.50
2023-05-21T05:58:55.008Z,20.60
2023-05-21T06:01:24.703Z,20.70
2023-05-21T06:03:53.187Z,20.70
2023-05-21T06:06:22.886Z,20.80
2023-05-21T06:08:51.359Z,20.70
2023-05-21T06:11:22.710Z,20.70
2023-05-21T06:13:51.007Z,20.70
2023-05-21T06:16:19.957Z,20.70
2023-05-21T06:18:48.420Z,20.60
2023-05-21T06:21:16.674Z,20.60
2023-05-21T06:23:47.603Z,20.40
2023-05-21T06:26:19.028Z,20.40
2023-05-21T06:28:49.164Z,20.40
2023-05-21T06:31:17.500Z,20.40
2023-05-21T06:33:46.185Z,20.30
2023-05-21T06:36:14.725Z,20.40
2023-05-21T06:38:43.030Z,20.50
2023-05-21T06:41:12.694Z,20.70
2023-05-21T06:43:49.872Z,20.80
2023-05-21T06:46:36.616Z,21.00
2023-05-21T06:49:08.528Z,21.20
2023-05-21T06:51:36.781Z,21.20
2023-05-21T06:54:05.857Z,21.20
2023-05-21T06:56:37.647Z,21.20
2023-05-21T06:59:05.866Z,21.30
2023-05-21T07:01:34.465Z,21.40
2023-05-21T07:04:03.256Z,21.30
2023-05-21T07:06:33.127Z,21.40
2023-05-21T07:09:01.350Z,21.40
2023-05-21T07:11:31.416Z,21.50
2023-05-21T07:14:04.081Z,21.80
2023-05-21T07:16:34.717Z,22.10
2023-05-21T07:19:03.865Z,22.50
2023-05-21T07:21:34.623Z,22.90
2023-05-21T07:24:03.570Z,23.30
2023-05-21T07:26:31.799Z,23.50
2023-05-21T07:29:01.455Z,23.70
2023-05-21T07:31:29.829Z,23.80
2023-05-21T07:33:58.371Z,24.00
2023-05-21T07:36:31.125Z,24.30
2023-05-21T07:39:00.262Z,24.30
2023-05-21T07:41:29.325Z,24.40
2023-05-21T07:44:02.449Z,24.50
2023-05-21T07:46:33.002Z,24.70
2023-05-21T07:49:01.333Z,25.20
2023-05-21T07:51:29.844Z,25.60
2023-05-21T07:53:59.208Z,25.80
2023-05-21T07:56:34.684Z,25.70
2023-05-21T07:59:04.729Z,25.90
2023-05-21T08:01:33.112Z,26.30
2023-05-21T08:04:05.739Z,26.60
2023-05-21T08:06:37.540Z,26.90
2023-05-21T08:09:06.396Z,27.50
2023-05-21T08:11:34.814Z,27.80
2023-05-21T08:14:04.631Z,27.30
2023-05-21T08:16:33.021Z,27.20
2023-05-21T08:19:01.217Z,27.20
2023-05-21T08:21:29.575Z,27.10
2023-05-21T08:24:00.234Z,27.10
2023-05-21T08:26:28.900Z,27.10
2023-05-21T08:28:58.003Z,27.50
2023-05-21T08:31:30.393Z,28.20
2023-05-21T08:33:58.579Z,28.30
2023-05-21T08:36:43.040Z,28.60
2023-05-21T08:39:24.629Z,28.90
2023-05-21T08:42:03.339Z,29.20
2023-05-21T08:44:34.431Z,29.40
2023-05-21T08:47:08.778Z,29.50
2023-05-21T08:49:37.615Z,29.10
2023-05-21T08:52:07.413Z,28.30
2023-05-21T08:54:36.873Z,28.10
2023-05-21T08:57:06.198Z,28.10
2023-05-21T08:59:36.919Z,27.90
2023-05-21T09:02:12.566Z,27.60
2023-05-21T09:04:42.443Z,27.80
2023-05-21T09:07:11.713Z,28.00
2023-05-21T09:09:59.523Z,27.70
2023-05-21T09:12:29.441Z,27.50
2023-05-21T09:15:01.681Z,27.40
2023-05-21T09:17:35.795Z,27.30
2023-05-21T09:20:25.232Z,27.40
2023-05-21T09:22:57.409Z,27.40
2023-05-21T09:25:28.216Z,27.30
2023-05-21T09:27:58.840Z,27.00
2023-05-21T09:30:30.549Z,26.80
2023-05-21T09:33:01.587Z,26.90
2023-05-21T09:35:30.233Z,26.90
2023-05-21T09:37:58.639Z,26.90
2023-05-21T09:40:27.209Z,26.70
2023-05-21T09:42:56.971Z,26.60
2023-05-21T09:45:27.598Z,26.60
2023-05-21T09:47:58.468Z,26.50
2023-05-21T09:50:28.758Z,26.50
2023-05-21T09:52:58.017Z,26.60
2023-05-21T09:55:27.662Z,26.60
2023-05-21T09:57:56.128Z,26.90
2023-05-21T10:00:27.438Z,27.00
2023-05-21T10:02:57.168Z,27.00
2023-05-21T10:05:29.246Z,27.00
2023-05-21T10:08:01.863Z,27.00
2023-05-21T10:10:31.988Z,26.90
2023-05-21T10:13:02.429Z,27.00
2023-05-21T10:15:36.149Z,27.00
2023-05-21T10:18:06.236Z,26.90
2023-05-21T10:20:36.791Z,26.80
2023-05-21T10:23:05.973Z,26.80
2023-05-21T10:25:34.664Z,26.80
2023-05-21T10:28:03.191Z,26.70
2023-05-21T10:30:32.134Z,26.50
2023-05-21T10:33:02.743Z,26.40
2023-05-21T10:35:32.319Z,26.30
2023-05-21T10:38:03.788Z,26.40
2023-05-21T10:40:32.275Z,26.60
2023-05-21T10:43:27.284Z,26.50
2023-05-21T10:46:17.389Z,26.50
2023-05-21T10:48:59.951Z,26.30
2023-05-21T10:51:30.540Z,26.40
2023-05-21T10:54:39.428Z,26.50
2023-05-21T10:57:17.759Z,26.40
2023-05-21T10:59:48.059Z,26.20
2023-05-21T11:02:17.370Z,26.30
2023-05-21T11:04:48.959Z,26.40
2023-05-21T11:07:24.741Z,26.30
2023-05-21T11:09:56.312Z,26.40
2023-05-21T11:12:24.447Z,26.50
2023-05-21T11:14:58.109Z,26.60
2023-05-21T11:17:40.582Z,26.80
2023-05-21T11:20:11.852Z,26.90
2023-05-21T11:22:40.210Z,26.70
2023-05-21T11:25:12.529Z,26.80
2023-05-21T11:27:42.301Z,26.80
2023-05-21T11:30:15.544Z,26.90
2023-05-21T11:33:19.293Z,27.10
2023-05-21T11:35:59.477Z,27.00
2023-05-21T11:38:30.183Z,27.00
2023-05-21T11:41:04.189Z,27.10
2023-05-21T11:43:32.313Z,27.20
2023-05-21T11:46:00.882Z,27.20
2023-05-21T11:48:30.606Z,27.20
2023-05-21T11:51:02.229Z,27.30
2023-05-21T11:53:31.260Z,27.30
2023-05-21T11:56:03.650Z,27.30
2023-05-21T11:58:32.956Z,27.30
2023-05-21T12:01:01.248Z,27.30
2023-05-21T12:03:30.616Z,27.30
2023-05-21T12:06:06.688Z,27.40
2023-05-21T12:08:35.857Z,27.50
2023-05-21T12:11:05.604Z,27.30
2023-05-21T12:13:33.831Z,27.40
2023-05-21T12:16:05.863Z,27.60
2023-05-21T12:18:34.943Z,27.40
2023-05-21T12:21:03.182Z,27.40
2023-05-21T12:23:31.566Z,27.40
2023-05-21T12:25:59.883Z,27.60
2023-05-21T12:28:30.025Z,27.60
2023-05-21T12:30:58.254Z,27.50
2023-05-21T12:33:29.162Z,27.40
2023-05-21T12:35:57.471Z,27.40
2023-05-21T12:38:31.020Z,27.50
2023-05-21T12:41:05.167Z,27.60
2023-05-21T12:43:35.121Z,27.70
2023-05-21T12:46:03.428Z,27.80
2023-05-21T12:48:31.676Z,27.70
2023-05-21T12:51:00.531Z,27.50
2023-05-21T12:53:38.631Z,27.40
2023-05-21T12:56:11.250Z,27.60
2023-05-21T12:58:41.516Z,27.60
2023-05-21T13:01:09.930Z,27.80
2023-05-21T13:03:39.430Z,27.80
2023-05-21T13:06:08.956Z,27.80
2023-05-21T13:08:37.332Z,27.60
2023-05-21T13:11:05.818Z,27.50
2023-05-21T13:13:34.057Z,27.60
2023-05-21T13:16:03.735Z,27.50
2023-05-21T13:18:31.918Z,27.50
2023-05-21T13:21:00.321Z,27.50
2023-05-21T13:23:28.646Z,27.60
2023-05-21T13:25:56.762Z,27.50
2023-05-21T13:28:25.479Z,27.60
2023-05-21T13:30:54.983Z,27.70
2023-05-21T13:33:24.645Z,27.70
2023-05-21T13:35:52.954Z,27.70
2023-05-21T13:38:21.429Z,27.60
2023-05-21T13:40:49.794Z,27.60
2023-05-21T13:43:17.996Z,27.50
2023-05-21T13:45:46.968Z,27.70
2023-05-21T13:48:16.292Z,27.60
2023-05-21T13:50:46.136Z,27.60
2023-05-21T13:53:14.315Z,27.50
2023-05-21T13:55:42.689Z,27.30
2023-05-21T13:58:11.137Z,27.50
2023-05-21T14:00:41.088Z,27.50
2023-05-21T14:03:10.743Z,27.40
2023-05-21T14:05:39.111Z,27.50
2023-05-21T14:08:08.783Z,27.50
2023-05-21T14:10:39.009Z,27.50
2023-05-21T14:13:18.390Z,27.50
2023-05-21T14:15:48.460Z,27.70
2023-05-21T14:18:16.618Z,27.80
2023-05-21T14:20:44.844Z,27.80
2023-05-21T14:23:14.479Z,27.70
2023-05-21T14:25:43.191Z,27.80
2023-05-21T14:28:11.403Z,27.70
2023-05-21T14:30:39.629Z,27.60
2023-05-21T14:33:08.078Z,27.70
2023-05-21T14:35:36.433Z,27.80
2023-05-21T14:38:04.777Z,27.70
2023-05-21T14:40:35.150Z,27.60
2023-05-21T14:43:03.921Z,27.50
2023-05-21T14:45:35.285Z,27.60
2023-05-21T14:48:08.269Z,27.70
2023-05-21T14:50:36.764Z,27.70
2023-05-21T14:53:06.406Z,27.70
2023-05-21T14:55:37.331Z,27.70
2023-05-21T14:58:06.319Z,27.70
2023-05-21T15:00:35.714Z,27.80
2023-05-21T15:03:05.004Z,27.80
2023-05-21T15:05:33.764Z,27.90
2023-05-21T15:08:03.913Z,27.90
2023-05-21T15:10:32.167Z,27.80
2023-05-21T15:13:01.896Z,27.80
2023-05-21T15:15:30.210Z,27.80
2023-05-21T15:17:58.641Z,27.80
2023-05-21T15:20:26.922Z,27.80
2023-05-21T15:23:08.485Z,27.70
2023-05-21T15:25:43.148Z,27.80
2023-05-21T15:28:13.076Z,27.70
2023-05-21T15:30:41.398Z,27.80
2023-05-21T15:33:09.586Z,27.90
2023-05-21T15:35:38.398Z,27.80
2023-05-21T15:38:06.974Z,27.60
2023-05-21T15:40:35.218Z,27.40
2023-05-21T15:43:03.448Z,27.30
2023-05-21T15:45:33.162Z,27.30
2023-05-21T15:48:01.330Z,27.30
2023-05-21T15:50:29.639Z,27.30
2023-05-21T15:52:57.865Z,27.30
2023-05-21T15:55:26.159Z,27.30
2023-05-21T15:57:54.285Z,27.30
2023-05-21T16:00:22.563Z,27.40
2023-05-21T16:02:52.334Z,27.50
2023-05-21T16:05:20.573Z,27.40
2023-05-21T16:07:49.165Z,27.30
2023-05-21T16:10:17.554Z,27.30
2023-05-21T16:12:45.801Z,27.30
2023-05-21T16:15:14.090Z,27.30
2023-05-21T16:17:42.631Z,27.20
2023-05-21T16:20:13.683Z,27.20
2023-05-21T16:22:41.926Z,27.20
2023-05-21T16:25:10.709Z,27.30
2023-05-21T16:27:38.852Z,27.20
2023-05-21T16:30:08.819Z,27.10
2023-05-21T16:32:37.033Z,27.10
2023-05-21T16:35:06.224Z,27.10
2023-05-21T16:37:35.814Z,27.10
2023-05-21T16:40:04.606Z,27.10
2023-05-21T16:42:33.112Z,27.10
2023-05-21T16:45:01.256Z,27.10
2023-05-21T16:47:29.473Z,27.10
2023-05-21T16:49:58.517Z,27.10
2023-05-21T16:52:27.022Z,27.10
2023-05-21T16:54:56.625Z,26.90
2023-05-21T16:57:24.807Z,27.00
2023-05-21T16:59:52.981Z,26.90
2023-05-21T17:02:21.369Z,26.90
2023-05-21T17:04:49.966Z,26.90
2023-05-21T17:07:18.370Z,26.90
2023-05-21T17:09:46.784Z,26.90
2023-05-21T17:12:16.413Z,26.90
2023-05-21T17:14:44.715Z,26.80
2023-05-21T17:17:12.922Z,26.70
2023-05-21T17:19:42.581Z,26.60
2023-05-21T17:22:12.188Z,26.60
2023-05-21T17:24:40.372Z,26.60
2023-05-21T17:27:08.650Z,26.50
2023-05-21T17:29:38.336Z,26.50
2023-05-21T17:32:07.572Z,26.50
2023-05-21T17:34:35.980Z,26.40
2023-05-21T17:37:05.322Z,26.40
2023-05-21T17:39:33.513Z,26.50
2023-05-21T17:42:02.071Z,26.60
2023-05-21T17:44:30.250Z,26.40
2023-05-21T17:46:59.911Z,26.30
2023-05-21T17:49:28.190Z,26.30
2023-05-21T17:51:56.581Z,26.20
2023-05-21T17:54:24.765Z,26.20
2023-05-21T17:56:53.111Z,26.10
2023-05-21T17:59:22.339Z,26.10
2023-05-21T18:01:50.792Z,26.10
2023-05-21T18:04:20.785Z,26.00
2023-05-21T18:06:49.118Z,26.00
2023-05-21T18:09:17.283Z,26.00
2023-05-21T18:11:45.607Z,26.00
2023-05-21T18:14:14.134Z,26.00
2023-05-21T18:16:42.912Z,26.00
2023-05-21T18:19:11.474Z,26.00
2023-05-21T18:21:41.314Z,25.90
2023-05-21T18:24:10.002Z,25.90
2023-05-21T18:26:38.771Z,25.90
2023-05-21T18:29:07.032Z,25.80
2023-05-21T18:31:35.617Z,25.80
2023-05-21T18:34:04.827Z,25.70
2023-05-21T18:36:38.693Z,25.70
2023-05-21T18:39:10.227Z,25.70
2023-05-21T18:41:39.568Z,25.60
2023-05-21T18:44:07.749Z,25.50
2023-05-21T18:46:36.340Z,25.50
2023-05-21T18:49:04.574Z,25.40
2023-05-21T18:51:32.985Z,25.40
2023-05-21T18:54:01.230Z,25.40
2023-05-21T18:56:30.944Z,25.30
2023-05-21T18:58:59.157Z,25.30
2023-05-21T19:01:27.802Z,25.20
2023-05-21T19:03:56.047Z,25.20
2023-05-21T19:06:25.509Z,25.20
2023-05-21T19:08:54.084Z,25.20
2023-05-21T19:11:23.681Z,25.20
2023-05-21T19:13:53.416Z,25.10
2023-05-21T19:16:22.170Z,25.10
2023-05-21T19:18:50.561Z,25.10
2023-05-21T19:21:18.939Z,25.20
2023-05-21T19:23:53.427Z,25.20
2023-05-21T19:26:22.471Z,25.10
2023-05-21T19:28:53.404Z,25.10
2023-05-21T19:31:25.241Z,25.00
2023-05-21T19:33:54.007Z,24.80
2023-05-21T19:36:22.851Z,24.70
2023-05-21T19:38:51.597Z,24.70
2023-05-21T19:41:21.502Z,24.60
2023-05-21T19:43:49.769Z,24.60
2023-05-21T19:46:20.446Z,24.60
2023-05-21T19:48:51.692Z,24.50
2023-05-21T19:51:20.433Z,24.50
2023-05-21T19:53:48.817Z,24.50
2023-05-21T19:56:17.436Z,24.50
2023-05-21T19:58:47.930Z,24.50
2023-05-21T20:01:17.371Z,24.50
2023-05-21T20:03:46.103Z,24.40
2023-05-21T20:06:19.110Z,24.40
2023-05-21T20:08:49.064Z,24.30
2023-05-21T20:11:17.463Z,24.30
2023-05-21T20:13:50.110Z,24.30
2023-05-21T20:16:20.130Z,24.30
2023-05-21T20:18:49.062Z,24.20
2023-05-21T20:21:20.121Z,24.20
2023-05-21T20:23:48.719Z,24.20
2023-05-21T20:26:18.856Z,24.20
2023-05-21T20:28:47.106Z,24.20
2023-05-21T20:31:15.582Z,24.10
2023-05-21T20:33:43.935Z,24.00
2023-05-21T20:36:13.343Z,24.00
2023-05-21T20:38:43.511Z,23.90
2023-05-21T20:41:11.809Z,23.90
2023-05-21T20:43:40.549Z,23.90
2023-05-21T20:46:08.743Z,23.80
2023-05-21T20:48:37.991Z,23.70
2023-05-21T20:51:06.877Z,23.60
2023-05-21T20:53:35.319Z,23.50
2023-05-21T20:56:08.202Z,23.40
2023-05-21T20:58:36.504Z,23.40
2023-05-21T21:01:04.651Z,23.40
2023-05-21T21:03:34.191Z,23.40
2023-05-21T21:06:03.108Z,23.40
2023-05-21T21:08:31.403Z,23.40
2023-05-21T21:10:59.588Z,23.40
2023-05-21T21:13:29.069Z,23.40
2023-05-21T21:15:57.447Z,23.30
2023-05-21T21:18:25.701Z,23.20
2023-05-21T21:20:54.078Z,23.20
2023-05-21T21:23:22.354Z,23.10
2023-05-21T21:25:50.605Z,23.20
2023-05-21T21:28:18.772Z,23.20
2023-05-21T21:30:48.351Z,23.10
2023-05-21T21:33:16.872Z,23.10
2023-05-21T21:35:45.139Z,23.10
2023-05-21T21:38:13.645Z,23.00
2023-05-21T21:40:42.268Z,22.90
2023-05-21T21:43:10.447Z,22.90
2023-05-21T21:45:38.681Z,22.90
2023-05-21T21:48:08.813Z,22.90
2023-05-21T21:50:37.266Z,22.90
2023-05-21T21:53:05.944Z,22.90
2023-05-21T21:55:34.492Z,22.90
2023-05-21T21:58:02.802Z,22.90
2023-05-21T22:00:31.212Z,22.80
2023-05-21T22:02:59.659Z,22.80
2023-05-21T22:05:30.746Z,22.90
2023-05-21T22:07:58.966Z,22.90
2023-05-21T22:10:27.262Z,22.90
2023-05-21T22:12:55.611Z,22.90
2023-05-21T22:15:25.340Z,22.90
2023-05-21T22:17:54.199Z,22.80
2023-05-21T22:20:23.080Z,22.80
2023-05-21T22:22:54.804Z,22.80
2023-05-21T22:25:23.507Z,22.70
2023-05-21T22:27:51.786Z,22.80
2023-05-21T22:30:20.643Z,22.70
2023-05-21T22:32:49.321Z,22.70
2023-05-21T22:35:17.698Z,22.70
2023-05-21T22:37:46.637Z,22.70
2023-05-21T22:40:16.347Z,22.70
2023-05-21T22:42:46.943Z,22.70
2023-05-21T22:45:15.449Z,22.70
2023-05-21T22:47:44.020Z,22.70
2023-05-21T22:50:12.840Z,22.70
2023-05-21T22:52:41.924Z,22.60
2023-05-21T22:55:11.549Z,22.60
2023-05-21T22:57:41.149Z,22.70
2023-05-21T23:00:10.872Z,22.70
2023-05-21T23:02:39.450Z,22.70
2023-05-21T23:05:08.163Z,22.70
2023-05-21T23:07:36.392Z,22.60
2023-05-21T23:10:04.866Z,22.70
2023-05-21T23:12:33.080Z,22.60
2023-05-21T23:15:05.329Z,22.60
2023-05-21T23:17:33.472Z,22.60
2023-05-21T23:20:01.658Z,22.60
2023-05-21T23:22:30.628Z,22.60
2023-05-21T23:24:58.842Z,22.50
2023-05-21T23:27:27.106Z,22.40
2023-05-21T23:29:55.678Z,22.30
2023-05-21T23:32:25.810Z,22.30
2023-05-21T23:34:54.056Z,22.30
2023-05-21T23:37:22.519Z,22.30
2023-05-21T23:39:51.480Z,22.30
2023-05-21T23:42:19.831Z,22.30
2023-05-21T23:44:47.919Z,22.30
2023-05-21T23:47:16.086Z,22.20
2023-05-21T23:49:45.643Z,22.30
2023-05-21T23:52:17.261Z,22.30
2023-05-21T23:54:46.021Z,22.20
2023-05-21T23:57:14.577Z,22.20
2023-05-21T23:59:42.952Z,22.20
